createdAt,value
2022-12-31T00:00:26.257Z,85.14
2022-12-31T00:05:49.540Z,85.22
2022-12-31T00:10:52.734Z,85.24
2022-12-31T00:15:55.864Z,85.15
2022-12-31T00:20:59.048Z,85.10
2022-12-31T00:26:09.930Z,85.04
2022-12-31T00:31:23.260Z,85.23
2022-12-31T00:36:37.334Z,85.20
2022-12-31T00:41:40.967Z,85.25
2022-12-31T00:51:46.979Z,85.36
2022-12-31T00:56:50.279Z,85.30
2022-12-31T01:01:53.363Z,85.26
2022-12-31T01:06:56.612Z,85.26
2022-12-31T01:11:59.710Z,85.31
2022-12-31T01:17:02.807Z,85.32
2022-12-31T01:22:05.924Z,85.25
2022-12-31T01:27:08.935Z,85.14
2022-12-31T01:32:12.131Z,85.06
2022-12-31T01:37:15.147Z,84.99
2022-12-31T01:42:18.238Z,84.79
2022-12-31T01:47:38.034Z,84.71
2022-12-31T01:52:47.652Z,84.75
2022-12-31T01:57:59.346Z,84.88
2022-12-31T02:03:05.792Z,84.86
2022-12-31T02:08:10.402Z,84.68
2022-12-31T02:13:15.498Z,84.50
2022-12-31T02:18:45.226Z,84.40
2022-12-31T02:24:28.787Z,84.43
2022-12-31T02:29:56.758Z,84.47
2022-12-31T02:35:21.156Z,84.58
2022-12-31T02:40:25.491Z,84.69
2022-12-31T02:45:41.816Z,84.66
2022-12-31T02:51:12.083Z,84.29
2022-12-31T02:56:41.513Z,83.89
2022-12-31T03:02:12.558Z,83.50
2022-12-31T03:07:23.765Z,83.18
2022-12-31T03:12:50.303Z,82.94
2022-12-31T03:18:01.298Z,82.64
2022-12-31T03:23:08.481Z,82.46
2022-12-31T03:28:15.990Z,82.21
2022-12-31T03:33:21.512Z,82.06
2022-12-31T03:38:24.904Z,82.07
2022-12-31T03:43:28.087Z,82.07
2022-12-31T03:48:31.088Z,82.04
2022-12-31T03:53:35.925Z,81.95
2022-12-31T03:58:38.928Z,81.82
2022-12-31T04:03:41.933Z,81.75
2022-12-31T04:08:45.038Z,81.87
2022-12-31T04:13:48.165Z,81.99
2022-12-31T04:18:51.358Z,82.07
2022-12-31T04:23:54.460Z,82.16
2022-12-31T04:28:57.666Z,82.47
2022-12-31T04:34:00.699Z,82.71
2022-12-31T04:39:03.914Z,82.99
2022-12-31T04:44:06.984Z,83.48
2022-12-31T04:49:10.841Z,84.42
2022-12-31T04:54:14.022Z,85.28
2022-12-31T04:59:17.131Z,86.48
2022-12-31T05:04:20.233Z,87.09
2022-12-31T05:09:24.365Z,87.64
2022-12-31T05:14:27.412Z,88.13
2022-12-31T05:19:30.478Z,88.56
2022-12-31T05:24:33.575Z,89.12
2022-12-31T05:29:36.682Z,89.59
2022-12-31T05:34:39.705Z,90.06
2022-12-31T05:39:42.892Z,90.39
2022-12-31T05:44:46.220Z,90.44
2022-12-31T05:49:49.516Z,90.49
2022-12-31T05:54:52.628Z,90.61
2022-12-31T05:59:55.783Z,90.60
2022-12-31T06:04:59.143Z,90.47
2022-12-31T06:10:02.264Z,90.27
2022-12-31T06:15:06.765Z,90.21
2022-12-31T06:20:13.184Z,90.10
2022-12-31T06:25:16.693Z,90.06
2022-12-31T06:30:19.936Z,89.94
2022-12-31T06:35:23.426Z,90.01
2022-12-31T06:40:26.517Z,90.00
2022-12-31T06:45:29.535Z,89.83
2022-12-31T06:50:33.241Z,89.68
2022-12-31T06:55:37.075Z,89.54
2022-12-31T07:01:01.262Z,89.46
2022-12-31T07:06:16.411Z,89.50
2022-12-31T07:11:30.587Z,89.31
2022-12-31T07:16:40.043Z,89.11
2022-12-31T07:21:44.750Z,88.96
2022-12-31T07:27:25.206Z,88.92
2022-12-31T07:32:53.312Z,88.78
2022-12-31T07:38:08.713Z,88.69
2022-12-31T07:43:59.206Z,88.58
2022-12-31T07:49:03.064Z,88.36
2022-12-31T07:54:11.821Z,88.28
2022-12-31T07:59:34.961Z,88.21
2022-12-31T08:05:02.531Z,88.18
2022-12-31T08:10:18.832Z,88.07
2022-12-31T08:15:28.473Z,87.93
2022-12-31T08:20:45.517Z,87.73
2022-12-31T08:26:09.139Z,87.58
2022-12-31T08:31:22.621Z,87.57
2022-12-31T08:36:31.718Z,87.41
2022-12-31T08:41:46.196Z,87.11
2022-12-31T08:47:27.833Z,86.90
2022-12-31T08:52:32.130Z,86.86
2022-12-31T08:57:50.699Z,87.12
2022-12-31T09:03:02.931Z,87.14
2022-12-31T09:08:44.651Z,86.92
2022-12-31T09:14:24.919Z,86.74
2022-12-31T09:19:28.838Z,86.72
2022-12-31T09:24:32.965Z,86.92
2022-12-31T09:29:59.327Z,86.94
2022-12-31T09:35:39.517Z,86.79
2022-12-31T09:41:16.724Z,86.49
2022-12-31T09:46:47.763Z,86.44
2022-12-31T09:52:09.610Z,86.54
2022-12-31T09:57:35.048Z,86.57
2022-12-31T10:03:25.845Z,86.63
2022-12-31T10:09:11.765Z,87.03
2022-12-31T10:14:38.902Z,87.38
2022-12-31T10:20:15.336Z,87.92
2022-12-31T10:25:50.588Z,88.47
2022-12-31T10:31:14.629Z,88.79
2022-12-31T10:36:31.419Z,89.02
2022-12-31T10:42:14.967Z,89.26
2022-12-31T10:47:52.221Z,89.49
2022-12-31T10:53:32.443Z,89.69
2022-12-31T10:59:13.949Z,89.69
2022-12-31T11:05:01.116Z,89.96
2022-12-31T11:10:25.700Z,90.21
2022-12-31T11:16:03.255Z,90.50
2022-12-31T11:21:40.923Z,90.74
2022-12-31T11:26:59.353Z,90.88
2022-12-31T11:32:02.413Z,90.96
2022-12-31T11:37:11.386Z,91.01
2022-12-31T11:42:41.715Z,90.99
2022-12-31T11:48:31.401Z,91.05
2022-12-31T11:54:06.747Z,91.26
2022-12-31T11:59:19.235Z,91.36
2022-12-31T12:04:23.229Z,91.45
2022-12-31T12:09:31.321Z,91.57
2022-12-31T12:14:41.812Z,91.56
2022-12-31T12:19:53.829Z,91.63
2022-12-31T12:25:08.104Z,91.89
2022-12-31T12:30:26.223Z,92.13
2022-12-31T12:35:35.797Z,92.04
2022-12-31T12:40:40.039Z,92.02
2022-12-31T12:45:51.728Z,91.89
2022-12-31T12:50:55.688Z,91.75
2022-12-31T12:56:16.595Z,91.61
2022-12-31T13:01:48.178Z,91.68
2022-12-31T13:07:25.481Z,91.57
2022-12-31T13:18:31.497Z,91.37
2022-12-31T13:23:54.874Z,91.22
2022-12-31T13:29:01.513Z,91.11
2022-12-31T13:34:30.474Z,91.07
2022-12-31T13:39:41.287Z,91.03
2022-12-31T13:45:04.718Z,90.91
2022-12-31T13:50:33.970Z,90.71
2022-12-31T13:55:59.413Z,90.61
2022-12-31T14:01:34.011Z,90.40
2022-12-31T14:07:07.570Z,90.28
2022-12-31T14:12:26.227Z,90.01
2022-12-31T14:17:47.870Z,89.88
2022-12-31T14:23:24.982Z,89.85
2022-12-31T14:28:47.004Z,89.78
2022-12-31T14:34:19.320Z,89.69
2022-12-31T14:39:52.853Z,89.59
2022-12-31T14:45:38.817Z,89.49
2022-12-31T14:50:46.731Z,89.26
2022-12-31T14:56:07.469Z,89.20
2022-12-31T15:01:17.815Z,88.91
2022-12-31T15:06:24.089Z,88.65
2022-12-31T15:11:52.030Z,88.44
2022-12-31T15:17:46.952Z,88.16
2022-12-31T15:22:53.101Z,87.87
2022-12-31T15:28:03.574Z,87.77
2022-12-31T15:33:38.153Z,87.56
2022-12-31T15:38:42.794Z,87.37
2022-12-31T15:43:54.263Z,87.26
2022-12-31T15:49:17.034Z,87.04
2022-12-31T15:54:31.538Z,86.82
2022-12-31T15:59:34.790Z,86.73
2022-12-31T16:04:44.542Z,86.75
2022-12-31T16:09:57.836Z,86.82
2022-12-31T16:15:02.593Z,86.67
2022-12-31T16:20:27.227Z,86.50
2022-12-31T16:25:33.831Z,86.40
2022-12-31T16:30:37.415Z,86.29
2022-12-31T16:35:40.857Z,86.14
2022-12-31T16:41:02.313Z,86.11
2022-12-31T16:46:17.477Z,86.07
2022-12-31T16:51:27.643Z,86.22
2022-12-31T16:56:38.188Z,86.24
2022-12-31T17:01:42.859Z,86.24
2022-12-31T17:06:47.850Z,86.21
2022-12-31T17:12:10.261Z,86.24
2022-12-31T17:17:27.729Z,86.33
2022-12-31T17:22:37.181Z,86.38
2022-12-31T17:27:40.667Z,86.36
2022-12-31T17:32:45.723Z,86.53
2022-12-31T17:37:48.959Z,86.92
2022-12-31T17:42:52.240Z,87.20
2022-12-31T17:47:59.942Z,87.40
2022-12-31T17:53:12.348Z,87.65
2022-12-31T17:58:39.032Z,88.18
2022-12-31T18:03:42.362Z,88.49
2022-12-31T18:08:45.562Z,88.90
2022-12-31T18:13:49.485Z,89.07
2022-12-31T18:18:52.793Z,89.17
2022-12-31T18:29:02.905Z,89.43
2022-12-31T18:34:06.675Z,89.43
2022-12-31T18:39:10.337Z,89.39
2022-12-31T18:44:16.313Z,89.21
2022-12-31T18:49:19.412Z,89.04
2022-12-31T18:54:22.535Z,88.96
2022-12-31T18:59:25.733Z,88.81
2022-12-31T19:04:28.835Z,88.84
2022-12-31T19:09:54.587Z,88.85
2022-12-31T19:14:57.879Z,88.89
2022-12-31T19:20:04.590Z,89.13
2022-12-31T19:25:27.373Z,89.24
2022-12-31T19:30:34.233Z,89.21
2022-12-31T19:35:38.878Z,89.04
2022-12-31T19:40:41.988Z,88.81
2022-12-31T19:45:45.827Z,88.58
2022-12-31T19:50:53.301Z,88.39
2022-12-31T19:55:56.429Z,88.15
2022-12-31T20:01:03.322Z,87.93
2022-12-31T20:06:10.367Z,87.79
2022-12-31T20:11:20.386Z,87.73
2022-12-31T20:16:27.123Z,87.69
2022-12-31T20:21:30.385Z,87.53
2022-12-31T20:26:33.694Z,87.32
2022-12-31T20:31:37.232Z,87.08
2022-12-31T20:36:41.166Z,87.04
2022-12-31T20:41:44.257Z,87.06
2022-12-31T20:46:47.372Z,86.87
2022-12-31T20:51:52.352Z,86.76
2022-12-31T20:56:55.651Z,86.73
2022-12-31T21:07:22.303Z,86.83
2022-12-31T21:12:43.841Z,86.67
2022-12-31T21:17:47.692Z,86.59
2022-12-31T21:22:50.787Z,86.54
2022-12-31T21:27:53.904Z,86.41
2022-12-31T21:32:57.078Z,86.32
2022-12-31T21:38:02.520Z,86.36
2022-12-31T21:43:05.647Z,86.23
2022-12-31T21:48:25.173Z,85.96
2022-12-31T21:53:36.349Z,85.78
2022-12-31T21:58:44.843Z,85.65
2022-12-31T22:03:48.037Z,85.52
2022-12-31T22:08:55.427Z,85.35
2022-12-31T22:13:58.698Z,85.19
2022-12-31T22:19:01.903Z,85.10
2022-12-31T22:24:06.108Z,84.89
2022-12-31T22:29:09.364Z,84.74
2022-12-31T22:34:12.446Z,84.65
2022-12-31T22:39:43.628Z,84.50
2022-12-31T22:44:39.772Z,84.37
2022-12-31T22:49:42.866Z,84.14
2022-12-31T22:54:45.976Z,84.04
2022-12-31T22:59:49.073Z,83.93
2022-12-31T23:04:52.182Z,83.78
2022-12-31T23:10:14.027Z,83.38
2022-12-31T23:15:36.192Z,83.01
2022-12-31T23:20:58.458Z,82.57
2022-12-31T23:26:02.575Z,82.13
2022-12-31T23:31:06.872Z,81.83
2022-12-31T23:36:10.310Z,81.78
2022-12-31T23:41:19.877Z,81.17
2022-12-31T23:46:23.090Z,80.81
2022-12-31T23:51:26.301Z,80.64
2022-12-31T23:56:31.041Z,80.26
